Time,TemperatureF,DewpointF,PressureIn,WindDirection,WindDirectionDegrees,WindSpeedMPH,WindSpeedGustMPH,Humidity,HourlyPrecipIn,Conditions,Clouds,dailyrainin,SolarRadiationWatts/m^2,SoftwareType,DateUTC
2013-02-01 00:02:00,27.0,26.0,-100.00,NW,311,10.0,24.0,95,0.00,,,0.04,0.000000,,2013-02-01 06:02:00,
2013-02-01 00:32:00,25.0,22.0,-100.00,WNW,302,8.0,21.0,89,0.00,,,0.04,0.000000,,2013-02-01 06:32:00,
2013-02-01 00:42:00,25.0,22.0,-100.00,WNW,302,8.0,21.0,89,0.00,,,0.04,0.000000,,2013-02-01 06:42:00,
2013-02-01 00:52:00,25.0,22.0,-100.00,WNW,302,8.0,21.0,89,0.00,,,0.04,0.000000,,2013-02-01 06:52:00,
2013-02-01 01:02:00,25.0,22.0,-100.00,WNW,302,8.0,21.0,89,0.00,,,0.04,0.000000,,2013-02-01 07:02:00,
2013-02-01 01:32:00,22.0,15.0,-100.00,NW,319,9.0,25.0,74,0.00,,,0.04,0.000000,,2013-02-01 07:32:00,
2013-02-01 01:42:00,22.0,15.0,-100.00,NW,319,9.0,25.0,74,0.00,,,0.04,0.000000,,2013-02-01 07:42:00,
2013-02-01 01:52:00,22.0,15.0,-100.00,NW,319,9.0,25.0,74,0.00,,,0.04,0.000000,,2013-02-01 07:52:00,
2013-02-01 02:01:00,22.0,15.0,-100.00,NW,319,9.0,25.0,74,0.00,,,0.04,0.000000,,2013-02-01 08:01:00,
2013-02-01 02:32:00,18.0,9.0,-100.00,NNW,330,9.0,25.0,66,0.00,,,0.04,0.000000,,2013-02-01 08:32:00,
2013-02-01 03:01:00,18.0,9.0,-100.00,NNW,330,9.0,25.0,66,0.00,,,0.04,0.000000,,2013-02-01 09:01:00,
2013-02-01 03:32:00,18.0,9.0,-100.00,NNW,330,10.0,19.0,67,0.00,,,0.04,0.000000,,2013-02-01 09:32:00,
2013-02-01 03:42:00,18.0,9.0,-100.00,NNW,330,10.0,19.0,67,0.00,,,0.04,0.000000,,2013-02-01 09:42:00,
2013-02-01 03:52:00,18.0,9.0,-100.00,NNW,330,10.0,19.0,67,0.00,,,0.04,0.000000,,2013-02-01 09:52:00,
2013-02-01 04:01:00,18.0,9.0,-100.00,NNW,330,10.0,19.0,67,0.00,,,0.04,0.000000,,2013-02-01 10:01:00,
2013-02-01 04:32:00,18.0,8.0,-100.00,NW,321,7.0,16.0,65,0.00,,,0.04,0.000000,,2013-02-01 10:32:00,
2013-02-01 04:43:00,18.0,8.0,-100.00,NW,321,7.0,16.0,65,0.00,,,0.04,0.000000,,2013-02-01 10:43:00,
2013-02-01 04:53:00,18.0,8.0,-100.00,NW,321,7.0,16.0,65,0.00,,,0.04,0.000000,,2013-02-01 10:53:00,
2013-02-01 05:02:00,18.0,8.0,-100.00,NW,321,7.0,16.0,65,0.00,,,0.04,0.000000,,2013-02-01 11:02:00,
2013-02-01 05:32:00,18.0,10.0,-100.00,WNW,302,5.0,15.0,70,0.00,,,0.04,0.000000,,2013-02-01 11:32:00,
2013-02-01 05:42:00,18.0,10.0,-100.00,WNW,302,5.0,15.0,70,0.00,,,0.04,0.000000,,2013-02-01 11:42:00,
2013-02-01 05:53:00,18.0,10.0,-100.00,WNW,302,5.0,15.0,70,0.00,,,0.04,0.000000,,2013-02-01 11:53:00,
2013-02-01 06:02:00,18.0,10.0,-100.00,WNW,302,5.0,15.0,70,0.00,,,0.04,0.000000,,2013-02-01 12:02:00,
2013-02-01 06:32:00,17.0,8.0,-100.00,NW,326,6.0,14.0,66,0.00,,,0.04,0.000000,,2013-02-01 12:32:00,
2013-02-01 06:42:00,17.0,8.0,-100.00,NW,326,6.0,14.0,66,0.00,,,0.04,0.000000,,2013-02-01 12:42:00,
2013-02-01 06:52:00,17.0,8.0,-100.00,NW,326,6.0,14.0,66,0.00,,,0.04,0.000000,,2013-02-01 12:52:00,
2013-02-01 07:02:00,17.0,8.0,-100.00,NW,326,6.0,14.0,66,0.00,,,0.04,0.000000,,2013-02-01 13:02:00,
2013-02-01 07:33:00,15.0,6.0,-100.00,NNW,332,6.0,12.0,67,0.00,,,0.04,4.000000,,2013-02-01 13:33:00,
2013-02-01 07:43:00,15.0,6.0,-100.00,NNW,332,6.0,12.0,67,0.00,,,0.04,4.000000,,2013-02-01 13:43:00,
2013-02-01 07:53:00,15.0,6.0,-100.00,NNW,332,6.0,12.0,67,0.00,,,0.04,4.000000,,2013-02-01 13:53:00,
2013-02-01 08:03:00,15.0,6.0,-100.00,NNW,332,6.0,12.0,67,0.00,,,0.04,4.000000,,2013-02-01 14:03:00,
2013-02-01 08:32:00,16.0,7.0,-100.00,NW,308,5.0,10.0,67,0.00,,,0.04,46.000000,,2013-02-01 14:32:00,
2013-02-01 08:42:00,16.0,7.0,-100.00,NW,308,5.0,10.0,67,0.00,,,0.04,46.000000,,2013-02-01 14:42:00,
2013-02-01 08:53:00,16.0,7.0,-100.00,NW,308,5.0,10.0,67,0.00,,,0.04,46.000000,,2013-02-01 14:53:00,
2013-02-01 09:02:00,16.0,7.0,-100.00,NW,308,5.0,10.0,67,0.00,,,0.04,46.000000,,2013-02-01 15:02:00,
2013-02-01 09:33:00,18.0,8.0,-100.00,West,281,5.0,10.0,64,0.00,,,0.04,120.000000,,2013-02-01 15:33:00,
2013-02-01 09:42:00,18.0,8.0,-100.00,West,281,5.0,10.0,64,0.00,,,0.04,120.000000,,2013-02-01 15:42:00,
2013-02-01 09:52:00,18.0,8.0,-100.00,West,281,5.0,10.0,64,0.00,,,0.04,120.000000,,2013-02-01 15:52:00,
2013-02-01 10:03:00,18.0,8.0,-100.00,West,281,5.0,10.0,64,0.00,,,0.04,120.000000,,2013-02-01 16:03:00,
2013-02-01 10:33:00,19.0,9.0,-100.00,NW,307,5.0,10.0,65,0.00,,,0.04,250.000000,,2013-02-01 16:33:00,
2013-02-01 10:43:00,19.0,9.0,-100.00,NW,307,5.0,10.0,65,0.00,,,0.04,250.000000,,2013-02-01 16:43:00,
2013-02-01 10:52:00,19.0,9.0,-100.00,NW,307,5.0,10.0,65,0.00,,,0.04,250.000000,,2013-02-01 16:52:00,
2013-02-01 11:02:00,19.0,9.0,-100.00,NW,307,5.0,10.0,65,0.00,,,0.04,250.000000,,2013-02-01 17:02:00,
2013-02-01 11:32:00,21.0,9.0,-100.00,West,268,4.0,10.0,58,0.01,,,0.05,423.000000,,2013-02-01 17:32:00,
2013-02-01 11:42:00,21.0,9.0,-100.00,West,268,4.0,10.0,58,0.01,,,0.05,423.000000,,2013-02-01 17:42:00,
2013-02-01 11:53:00,21.0,9.0,-100.00,West,268,4.0,10.0,58,0.01,,,0.05,423.000000,,2013-02-01 17:53:00,
2013-02-01 12:03:00,21.0,9.0,-100.00,West,268,4.0,10.0,58,0.01,,,0.05,423.000000,,2013-02-01 18:03:00,
2013-02-01 12:32:00,23.0,10.0,-100.00,WSW,238,5.0,11.0,56,0.00,,,0.05,574.000000,,2013-02-01 18:32:00,
2013-02-01 12:42:00,23.0,10.0,-100.00,WSW,238,5.0,11.0,56,0.00,,,0.05,574.000000,,2013-02-01 18:42:00,
2013-02-01 12:53:00,23.0,10.0,-100.00,WSW,238,5.0,11.0,56,0.00,,,0.05,574.000000,,2013-02-01 18:53:00,
2013-02-01 13:02:00,23.0,10.0,-100.00,WSW,238,5.0,11.0,56,0.00,,,0.05,574.000000,,2013-02-01 19:02:00,
2013-02-01 13:32:00,26.0,11.0,-100.00,WSW,252,5.0,10.0,53,0.00,,,0.05,602.000000,,2013-02-01 19:32:00,
2013-02-01 13:42:00,26.0,11.0,-100.00,WSW,252,5.0,10.0,53,0.00,,,0.05,602.000000,,2013-02-01 19:42:00,
2013-02-01 13:52:00,26.0,11.0,-100.00,WSW,252,5.0,10.0,53,0.00,,,0.05,602.000000,,2013-02-01 19:52:00,
2013-02-01 14:02:00,26.0,11.0,-100.00,WSW,252,5.0,10.0,53,0.00,,,0.05,602.000000,,2013-02-01 20:02:00,
2013-02-01 14:32:00,27.0,11.0,-100.00,WNW,294,6.0,9.0,51,0.00,,,-99.99,508.000000,,2013-02-01 20:32:00,
2013-02-01 14:42:00,27.0,11.0,-100.00,WNW,294,6.0,9.0,51,0.00,,,-99.99,508.000000,,2013-02-01 20:42:00,
2013-02-01 14:52:00,27.0,11.0,-100.00,WNW,294,6.0,9.0,51,0.00,,,-99.99,508.000000,,2013-02-01 20:52:00,
2013-02-01 15:02:00,27.0,11.0,-100.00,WNW,294,6.0,9.0,51,0.00,,,-99.99,508.000000,,2013-02-01 21:02:00,
2013-02-01 15:32:00,27.0,9.0,-100.00,NW,319,5.0,11.0,47,0.00,,,0.05,415.000000,,2013-02-01 21:32:00,
2013-02-01 15:42:00,27.0,9.0,-100.00,NW,319,5.0,11.0,47,0.00,,,0.05,415.000000,,2013-02-01 21:42:00,
2013-02-01 15:52:00,27.0,9.0,-100.00,NW,319,5.0,11.0,47,0.00,,,0.05,415.000000,,2013-02-01 21:52:00,
2013-02-01 16:02:00,27.0,9.0,-100.00,NW,319,5.0,11.0,47,0.00,,,0.05,415.000000,,2013-02-01 22:02:00,
2013-02-01 16:32:00,28.0,12.0,-100.00,NW,320,4.0,9.0,50,0.00,,,0.05,255.000000,,2013-02-01 22:32:00,
2013-02-01 16:42:00,28.0,12.0,-100.00,NW,320,4.0,9.0,50,0.00,,,0.05,255.000000,,2013-02-01 22:42:00,
2013-02-01 16:52:00,28.0,12.0,-100.00,NW,320,4.0,9.0,50,0.00,,,0.05,255.000000,,2013-02-01 22:52:00,
2013-02-01 17:01:00,28.0,12.0,-100.00,NW,320,4.0,9.0,50,0.00,,,0.05,255.000000,,2013-02-01 23:01:00,
2013-02-01 17:32:00,24.0,10.0,-100.00,WSW,237,4.0,8.0,54,0.00,,,0.05,70.000000,,2013-02-01 23:32:00,
2013-02-01 17:42:00,24.0,10.0,-100.00,WSW,237,4.0,8.0,54,0.00,,,0.05,70.000000,,2013-02-01 23:42:00,
2013-02-01 17:52:00,24.0,10.0,-100.00,WSW,237,4.0,8.0,54,0.00,,,0.05,70.000000,,2013-02-01 23:52:00,
2013-02-01 18:02:00,24.0,10.0,-100.00,WSW,237,4.0,8.0,54,0.00,,,0.05,70.000000,,2013-02-02 00:02:00,
2013-02-01 18:32:00,22.0,10.0,-100.00,SW,224,2.0,6.0,59,0.00,,,0.05,1.000000,,2013-02-02 00:32:00,
2013-02-01 18:42:00,22.0,10.0,-100.00,SW,224,2.0,6.0,59,0.00,,,0.05,1.000000,,2013-02-02 00:42:00,
2013-02-01 18:52:00,22.0,10.0,-100.00,SW,224,2.0,6.0,59,0.00,,,0.05,1.000000,,2013-02-02 00:52:00,
2013-02-01 19:02:00,22.0,10.0,-100.00,SW,224,2.0,6.0,59,0.00,,,0.05,1.000000,,2013-02-02 01:02:00,
2013-02-01 19:32:00,21.0,12.0,-100.00,North,356,2.0,3.0,68,0.00,,,0.05,0.000000,,2013-02-02 01:32:00,
2013-02-01 19:42:00,21.0,12.0,-100.00,North,356,2.0,3.0,68,0.00,,,0.05,0.000000,,2013-02-02 01:42:00,
2013-02-01 19:52:00,21.0,12.0,-100.00,North,356,2.0,3.0,68,0.00,,,0.05,0.000000,,2013-02-02 01:52:00,
2013-02-01 20:01:00,21.0,12.0,-100.00,North,356,2.0,3.0,68,0.00,,,0.05,0.000000,,2013-02-02 02:01:00,
2013-02-01 20:32:00,21.0,12.0,-100.00,ENE,78,1.0,2.0,67,0.00,,,0.05,0.000000,,2013-02-02 02:32:00,
2013-02-01 20:42:00,21.0,12.0,-100.00,ENE,78,1.0,2.0,67,0.00,,,0.05,0.000000,,2013-02-02 02:42:00,
2013-02-01 20:52:00,21.0,12.0,-100.00,ENE,78,1.0,2.0,67,0.00,,,0.05,0.000000,,2013-02-02 02:52:00,
2013-02-01 21:02:00,21.0,12.0,-100.00,ENE,78,1.0,2.0,67,0.00,,,0.05,0.000000,,2013-02-02 03:02:00,
2013-02-01 21:32:00,22.0,16.0,-100.00,SSE,160,2.0,6.0,76,0.00,,,0.05,0.000000,,2013-02-02 03:32:00,
2013-02-01 21:42:00,22.0,16.0,-100.00,SSE,160,2.0,6.0,76,0.00,,,0.05,0.000000,,2013-02-02 03:42:00,
2013-02-01 21:52:00,22.0,16.0,-100.00,SSE,160,2.0,6.0,76,0.00,,,0.05,0.000000,,2013-02-02 03:52:00,
2013-02-01 22:01:00,22.0,16.0,-100.00,SSE,160,2.0,6.0,76,0.00,,,0.05,0.000000,,2013-02-02 04:01:00,
2013-02-01 22:32:00,23.0,14.0,-100.00,SE,137,2.0,5.0,68,0.00,,,0.01,0.000000,,2013-02-02 04:32:00,
2013-02-01 22:42:00,23.0,14.0,-100.00,SE,137,2.0,5.0,68,0.00,,,0.01,0.000000,,2013-02-02 04:42:00,
2013-02-01 22:52:00,23.0,14.0,-100.00,SE,137,2.0,5.0,68,0.00,,,0.01,0.000000,,2013-02-02 04:52:00,
2013-02-01 23:03:00,23.0,14.0,-100.00,SE,137,2.0,5.0,68,0.00,,,0.01,0.000000,,2013-02-02 05:03:00,
2013-02-01 23:33:00,24.0,14.0,-100.00,SSW,194,3.0,6.0,64,0.00,,,0.01,0.000000,,2013-02-02 05:33:00,
2013-02-01 23:42:00,24.0,14.0,-100.00,SSW,194,3.0,6.0,64,0.00,,,0.01,0.000000,,2013-02-02 05:42:00,
2013-02-01 23:52:00,24.0,14.0,-100.00,SSW,194,3.0,6.0,64,0.00,,,0.01,0.000000,,2013-02-02 05:52:00,